Time;durP1;ratioP1;P1;durP2;ratioP2;P2;SDS_P1;SDS_P2;PMS_P1;PMS_P2;Temp;Humidity;BMP_temperature;BMP_pressure;BME280_temperature;BME280_humidity;BME280_pressure;Samples;Min_cycle;Max_cycle;Signal;HPM_P1;HPM_P2
2021/10/06 00:00:44;;;;;;;1.65;0.52;;;13.00;71.80;;;;;;4836444;29;20202;-76
2021/10/06 00:03:11;;;;;;;3.83;1.15;;;13.00;71.90;;;;;;4835490;29;20073;-77
2021/10/06 00:05:37;;;;;;;3.97;1.45;;;13.00;71.90;;;;;;4836147;29;20042;-77
2021/10/06 00:08:04;;;;;;;5.78;1.52;;;13.00;71.90;;;;;;4835124;29;20455;-77
2021/10/06 00:10:29;;;;;;;2.75;0.88;;;13.00;71.90;;;;;;4835737;29;20501;-79
2021/10/06 00:12:55;;;;;;;3.55;1.10;;;13.00;72.00;;;;;;4835958;29;20030;-77
2021/10/06 00:15:21;;;;;;;2.25;0.85;;;13.00;72.00;;;;;;4836606;29;20094;-76
2021/10/06 00:17:47;;;;;;;5.72;1.00;;;12.90;71.80;;;;;;4852955;29;20037;-87
2021/10/06 00:20:13;;;;;;;2.65;0.70;;;12.90;71.80;;;;;;4837587;29;20065;-76
2021/10/06 00:22:39;;;;;;;3.10;1.02;;;13.00;72.00;;;;;;4836188;29;20035;-83
2021/10/06 00:25:07;;;;;;;4.22;1.10;;;12.90;71.90;;;;;;4836825;29;20111;-77
2021/10/06 00:27:33;;;;;;;3.13;1.27;;;12.90;71.90;;;;;;4835534;29;20038;-77
2021/10/06 00:29:59;;;;;;;1.95;0.70;;;12.90;71.90;;;;;;4835870;29;20450;-77
2021/10/06 00:32:25;;;;;;;4.10;0.90;;;12.90;71.90;;;;;;4835653;29;20094;-79
2021/10/06 00:34:52;;;;;;;2.47;0.93;;;12.90;71.90;;;;;;4837651;29;20391;-85
2021/10/06 00:37:18;;;;;;;2.22;0.93;;;12.90;71.90;;;;;;4836757;29;20029;-83
2021/10/06 00:39:44;;;;;;;4.72;1.15;;;12.90;71.90;;;;;;4836118;29;20046;-78
2021/10/06 00:42:10;;;;;;;2.95;1.13;;;12.90;72.10;;;;;;4836336;29;20038;-79
2021/10/06 00:44:38;;;;;;;2.35;1.20;;;12.80;71.80;;;;;;4850718;29;20124;-77
2021/10/06 00:47:05;;;;;;;3.00;0.85;;;12.90;72.00;;;;;;4853469;29;20053;-77
2021/10/06 00:49:32;;;;;;;4.60;1.25;;;12.80;71.80;;;;;;4841734;29;20034;-79
2021/10/06 00:51:57;;;;;;;3.85;0.90;;;12.80;71.90;;;;;;4835150;29;20066;-78
2021/10/06 00:54:24;;;;;;;2.90;1.20;;;12.80;71.90;;;;;;4835789;29;20040;-77
2021/10/06 00:56:50;;;;;;;2.85;0.95;;;12.80;71.90;;;;;;4835900;29;20121;-81
2021/10/06 00:59:15;;;;;;;2.25;1.00;;;12.80;72.00;;;;;;4835760;29;20134;-78
2021/10/06 01:01:41;;;;;;;2.97;1.08;;;12.80;72.00;;;;;;4835876;29;20129;-77
2021/10/06 01:04:08;;;;;;;5.25;1.30;;;12.80;72.00;;;;;;4835445;29;20606;-77
2021/10/06 01:06:34;;;;;;;2.58;1.13;;;12.80;72.00;;;;;;4837698;29;20129;-80
2021/10/06 01:09:01;;;;;;;2.05;0.82;;;12.80;72.10;;;;;;4842572;29;20038;-82
2021/10/06 01:11:28;;;;;;;3.90;1.00;;;12.80;72.10;;;;;;4839036;29;20034;-76
2021/10/06 01:13:56;;;;;;;1.75;1.08;;;12.70;71.90;;;;;;4845088;29;20038;-77
2021/10/06 01:16:23;;;;;;;7.38;0.75;;;12.80;72.20;;;;;;4849710;29;20057;-78
2021/10/06 01:18:52;;;;;;;2.17;1.52;;;12.70;72.10;;;;;;4833918;29;20110;-79
2021/10/06 01:21:21;;;;;;;2.17;0.82;;;12.70;72.00;;;;;;4834028;29;20030;-78
2021/10/06 01:24:02;;;;;;;;;;;;;;;;;;;;;
2021/10/06 01:26:50;;;;;;;;;;;12.70;72.10;;;;;;4852992;29;20146;-78
2021/10/06 01:29:22;;;;;;;2.75;1.33;;;12.70;72.00;;;;;;4842709;29;19936;-78
2021/10/06 01:32:03;;;;;;;1.70;0.90;;;12.70;71.90;;;;;;4844605;29;20145;-78
2021/10/06 01:34:43;;;;;;;4.88;1.33;;;12.70;72.00;;;;;;4863571;29;20474;-78
2021/10/06 01:37:19;;;;;;;2.05;0.75;;;12.70;72.00;;;;;;4840501;29;20038;-78
2021/10/06 01:39:45;;;;;;;3.38;0.95;;;12.70;72.00;;;;;;4841168;29;20046;-78
2021/10/06 01:42:11;;;;;;;2.72;1.05;;;12.70;72.10;;;;;;4837225;29;20026;-77
2021/10/06 01:44:37;;;;;;;3.03;1.33;;;12.70;72.00;;;;;;4845295;29;20050;-77
2021/10/06 01:47:03;;;;;;;4.32;1.00;;;12.70;72.10;;;;;;4857472;29;20042;-85
2021/10/06 01:49:29;;;;;;;4.55;1.38;;;12.70;72.10;;;;;;4848504;29;20041;-77
2021/10/06 01:51:55;;;;;;;2.88;1.15;;;12.70;72.10;;;;;;4843360;29;20038;-77
2021/10/06 01:54:21;;;;;;;2.90;0.85;;;12.70;72.10;;;;;;4843692;29;20077;-80
2021/10/06 01:56:47;;;;;;;2.08;0.88;;;12.70;72.10;;;;;;4845489;29;20037;-80
2021/10/06 01:59:13;;;;;;;4.35;1.00;;;12.60;72.00;;;;;;4861172;29;20109;-86
2021/10/06 02:01:39;;;;;;;1.95;1.33;;;12.70;72.20;;;;;;4844945;29;20037;-83
2021/10/06 02:04:05;;;;;;;2.63;0.77;;;12.70;72.20;;;;;;4845199;29;20049;-77
2021/10/06 02:06:31;;;;;;;4.53;1.05;;;12.70;72.20;;;;;;4843067;29;20041;-87
2021/10/06 02:08:57;;;;;;;1.52;0.80;;;12.70;72.20;;;;;;4843353;29;20038;-77
2021/10/06 02:11:23;;;;;;;1.35;0.65;;;12.70;72.20;;;;;;4843044;29;20030;-80
2021/10/06 02:13:49;;;;;;;1.75;0.65;;;12.70;72.70;;;;;;4846681;29;20066;-89
2021/10/06 02:16:15;;;;;;;2.28;0.77;;;12.70;72.30;;;;;;4848509;29;20549;-83
2021/10/06 02:18:41;;;;;;;3.97;1.10;;;12.70;72.20;;;;;;4862870;29;20041;-80
2021/10/06 02:21:07;;;;;;;2.50;0.70;;;12.70;72.20;;;;;;4861781;29;20029;-78
2021/10/06 02:23:33;;;;;;;2.42;0.70;;;12.70;72.20;;;;;;4861342;29;20128;-77
2021/10/06 02:25:59;;;;;;;10.15;2.78;;;12.70;72.20;;;;;;4860771;29;20048;-77
2021/10/06 02:28:25;;;;;;;4.57;1.40;;;12.70;72.30;;;;;;4863509;29;20037;-81
2021/10/06 02:30:51;;;;;;;2.28;1.00;;;12.60;72.10;;;;;;4863499;29;20089;-87
2021/10/06 02:33:17;;;;;;;2.03;0.82;;;12.70;72.30;;;;;;4864062;29;20037;-81
2021/10/06 02:35:43;;;;;;;3.40;1.10;;;12.70;72.30;;;;;;4861710;29;20034;-76
2021/10/06 02:38:10;;;;;;;4.97;1.15;;;12.70;72.30;;;;;;4861292;29;20095;-77
2021/10/06 02:40:36;;;;;;;2.38;0.73;;;12.70;72.30;;;;;;4860970;29;20483;-80
2021/10/06 02:43:03;;;;;;;3.00;0.90;;;12.70;72.30;;;;;;4861014;29;20120;-77
2021/10/06 02:45:29;;;;;;;3.55;0.90;;;12.60;72.10;;;;;;4862776;29;20108;-80
2021/10/06 02:47:55;;;;;;;2.50;0.80;;;12.60;72.10;;;;;;4846813;29;20590;-91
2021/10/06 02:50:23;;;;;;;4.05;0.63;;;12.70;72.20;;;;;;4845032;29;20034;-85
2021/10/06 02:52:51;;;;;;;1.77;0.90;;;12.60;72.10;;;;;;4844065;29;20037;-76
2021/10/06 02:55:17;;;;;;;1.85;0.90;;;12.60;72.10;;;;;;4842488;29;20062;-76
2021/10/06 02:57:43;;;;;;;2.75;1.55;;;12.60;72.10;;;;;;4841762;29;20038;-76
2021/10/06 03:00:10;;;;;;;3.47;0.90;;;12.60;72.10;;;;;;4841233;29;20042;-77
2021/10/06 03:02:39;;;;;;;3.55;0.95;;;12.60;72.10;;;;;;4842918;29;20036;-77
2021/10/06 03:05:06;;;;;;;4.20;1.00;;;12.60;72.10;;;;;;4860814;29;20034;-81
2021/10/06 03:07:32;;;;;;;2.20;1.33;;;12.60;72.10;;;;;;4844769;29;20564;-79
2021/10/06 03:09:58;;;;;;;2.42;0.90;;;12.60;72.10;;;;;;4843451;29;20121;-82
2021/10/06 03:12:24;;;;;;;2.63;1.48;;;12.60;72.20;;;;;;4855953;29;20444;-76
2021/10/06 03:14:50;;;;;;;3.28;0.95;;;12.60;72.20;;;;;;4840505;29;20059;-77
2021/10/06 03:17:16;;;;;;;2.47;0.90;;;12.60;72.20;;;;;;4852758;29;20482;-77
2021/10/06 03:19:42;;;;;;;2.97;0.73;;;12.60;72.20;;;;;;4858718;29;20069;-77
2021/10/06 03:22:09;;;;;;;1.77;0.85;;;12.60;72.20;;;;;;4860319;29;20053;-83
2021/10/06 03:24:35;;;;;;;2.63;0.80;;;12.60;72.20;;;;;;4861629;29;20393;-85
2021/10/06 03:27:00;;;;;;;2.60;1.00;;;12.60;72.20;;;;;;4860995;29;20124;-80
2021/10/06 03:29:28;;;;;;;2.50;0.80;;;12.60;72.20;;;;;;4861906;29;20037;-82
2021/10/06 03:31:54;;;;;;;3.03;1.08;;;12.60;72.10;;;;;;4860432;29;20390;-77
2021/10/06 03:34:20;;;;;;;2.47;1.02;;;12.60;72.10;;;;;;4859161;29;20196;-78
2021/10/06 03:36:46;;;;;;;2.08;0.80;;;12.60;72.10;;;;;;4857782;29;20133;-78
2021/10/06 03:39:15;;;;;;;1.55;1.08;;;12.60;72.10;;;;;;4859733;29;20152;-80
2021/10/06 03:41:43;;;;;;;2.35;0.82;;;12.60;72.10;;;;;;4861374;29;20178;-87
2021/10/06 03:44:09;;;;;;;2.67;0.88;;;12.50;71.90;;;;;;4862458;29;20128;-84
2021/10/06 03:46:35;;;;;;;2.97;0.80;;;12.50;71.90;;;;;;4863344;29;20520;-81
2021/10/06 03:49:01;;;;;;;2.97;0.73;;;12.50;71.90;;;;;;4861775;29;20124;-77
2021/10/06 03:51:27;;;;;;;1.58;0.65;;;12.50;71.90;;;;;;4859727;29;20061;-77
2021/10/06 03:53:53;;;;;;;3.83;0.95;;;12.50;71.90;;;;;;4859468;29;20085;-76
2021/10/06 03:56:19;;;;;;;2.10;0.70;;;12.50;71.90;;;;;;4860139;29;20068;-86
2021/10/06 03:58:44;;;;;;;2.58;0.60;;;12.50;71.90;;;;;;4863041;29;20045;-91
2021/10/06 04:01:10;;;;;;;4.38;1.45;;;12.50;71.90;;;;;;4861908;29;20033;-80
2021/10/06 04:03:36;;;;;;;1.65;0.63;;;12.50;71.90;;;;;;4863113;29;20445;-85
2021/10/06 04:06:03;;;;;;;2.60;1.05;;;12.50;71.90;;;;;;4862424;29;20037;-76
2021/10/06 04:08:29;;;;;;;1.80;0.77;;;12.40;71.80;;;;;;4860294;29;20040;-78
2021/10/06 04:10:55;;;;;;;1.88;0.60;;;12.50;71.90;;;;;;4858852;29;20046;-76
2021/10/06 04:13:21;;;;;;;4.30;1.35;;;12.40;71.70;;;;;;4859565;29;20053;-76
2021/10/06 04:15:47;;;;;;;2.53;0.82;;;12.40;71.80;;;;;;4863499;29;20040;-88
2021/10/06 04:18:12;;;;;;;4.15;1.35;;;12.40;71.80;;;;;;4861122;29;20396;-85
2021/10/06 04:20:39;;;;;;;3.20;0.80;;;12.40;71.80;;;;;;4860709;29;20034;-86
2021/10/06 04:23:06;;;;;;;2.90;1.00;;;12.40;71.80;;;;;;4860386;29;20049;-85
2021/10/06 04:25:32;;;;;;;3.05;1.80;;;12.40;71.80;;;;;;4860029;29;20113;-80
2021/10/06 04:27:58;;;;;;;3.30;0.65;;;12.40;71.80;;;;;;4859010;29;20041;-78
2021/10/06 04:30:24;;;;;;;1.52;0.68;;;12.40;71.90;;;;;;4859161;29;20044;-77
2021/10/06 04:32:50;;;;;;;1.27;0.93;;;12.40;71.90;;;;;;4862897;29;20423;-82
2021/10/06 04:35:16;;;;;;;4.05;1.23;;;12.40;71.90;;;;;;4861116;29;20033;-89
2021/10/06 04:37:42;;;;;;;2.83;0.90;;;12.40;71.90;;;;;;4860183;29;20049;-83
2021/10/06 04:40:09;;;;;;;2.60;0.95;;;12.40;71.90;;;;;;4861671;29;20089;-85
2021/10/06 04:42:35;;;;;;;2.78;0.80;;;12.40;71.90;;;;;;4855567;29;20038;-76
2021/10/06 04:45:01;;;;;;;2.83;0.90;;;12.40;72.50;;;;;;4851496;29;20175;-81
2021/10/06 04:47:27;;;;;;;2.10;0.65;;;12.40;72.00;;;;;;4851928;29;20134;-77
2021/10/06 04:49:53;;;;;;;2.63;1.02;;;12.30;71.80;;;;;;4844583;29;20032;-79
2021/10/06 04:52:19;;;;;;;2.45;0.88;;;12.30;71.80;;;;;;4839813;29;20034;-81
2021/10/06 04:54:45;;;;;;;2.30;0.90;;;12.40;72.10;;;;;;4848523;29;20398;-77
2021/10/06 04:57:11;;;;;;;4.50;0.80;;;12.30;71.90;;;;;;4847245;29;20294;-78
2021/10/06 04:59:37;;;;;;;3.13;0.73;;;12.30;71.90;;;;;;4847323;29;20053;-85
2021/10/06 05:02:03;;;;;;;3.25;0.90;;;12.30;71.90;;;;;;4847746;29;20042;-79
2021/10/06 05:04:29;;;;;;;3.40;0.90;;;12.30;71.90;;;;;;4844831;29;20057;-76
2021/10/06 05:06:55;;;;;;;4.47;0.80;;;12.30;72.00;;;;;;4847855;29;20029;-76
2021/10/06 05:09:21;;;;;;;3.92;1.10;;;12.30;72.00;;;;;;4846492;29;20088;-89
2021/10/06 05:11:47;;;;;;;3.10;1.35;;;12.30;72.00;;;;;;4849355;29;20033;-87
2021/10/06 05:14:13;;;;;;;2.28;0.90;;;12.40;72.20;;;;;;4839911;29;20096;-84
2021/10/06 05:16:39;;;;;;;3.70;0.90;;;12.40;72.20;;;;;;4843108;29;20037;-83
2021/10/06 05:19:05;;;;;;;2.78;0.90;;;12.30;72.10;;;;;;4841012;29;20064;-78
2021/10/06 05:21:31;;;;;;;2.22;0.93;;;12.30;72.10;;;;;;4836505;29;20046;-79
2021/10/06 05:23:57;;;;;;;2.00;0.80;;;12.30;72.10;;;;;;4840040;29;20113;-78
2021/10/06 05:26:23;;;;;;;1.40;0.60;;;12.30;72.10;;;;;;4853831;29;20034;-85
2021/10/06 05:28:54;;;;;;;2.75;0.93;;;12.30;72.00;;;;;;4862168;29;20048;-81
2021/10/06 05:31:21;;;;;;;3.05;0.88;;;12.30;72.00;;;;;;4859110;29;20121;-91
2021/10/06 05:33:49;;;;;;;1.92;0.60;;;12.30;72.00;;;;;;4852130;29;20183;-85
2021/10/06 05:36:16;;;;;;;2.78;0.90;;;12.30;72.10;;;;;;4850403;29;20033;-82
2021/10/06 05:38:42;;;;;;;6.28;1.00;;;12.30;72.10;;;;;;4847056;29;20495;-80
2021/10/06 05:41:09;;;;;;;3.83;0.90;;;12.30;72.10;;;;;;4840668;29;20117;-80
2021/10/06 05:43:35;;;;;;;2.70;0.65;;;12.30;72.10;;;;;;4837933;29;20034;-79
2021/10/06 05:46:01;;;;;;;5.35;1.35;;;12.30;72.10;;;;;;4840073;29;20048;-78
2021/10/06 05:48:27;;;;;;;5.15;1.20;;;12.30;72.20;;;;;;4858664;29;20053;-92
2021/10/06 05:50:53;;;;;;;5.70;1.40;;;12.30;72.40;;;;;;4859712;29;20040;-84
2021/10/06 05:53:19;;;;;;;3.30;1.20;;;12.30;72.60;;;;;;4857829;29;20029;-80
2021/10/06 05:55:45;;;;;;;7.78;1.92;;;12.30;72.80;;;;;;4857445;29;20038;-79
2021/10/06 05:58:13;;;;;;;2.80;1.00;;;12.30;73.00;;;;;;4856948;29;20037;-80
2021/10/06 06:00:39;;;;;;;5.57;1.67;;;12.30;73.20;;;;;;4841319;29;20049;-81
2021/10/06 06:03:09;;;;;;;3.10;1.00;;;12.40;73.50;;;;;;4856840;29;20383;-79
2021/10/06 06:05:40;;;;;;;4.32;1.60;;;12.40;73.50;;;;;;4855695;29;20039;-79
2021/10/06 06:08:06;;;;;;;4.97;1.40;;;12.40;73.50;;;;;;4856096;29;20041;-78
2021/10/06 06:10:32;;;;;;;3.35;1.02;;;12.40;73.40;;;;;;4857011;29;20030;-77
2021/10/06 06:12:58;;;;;;;5.07;1.17;;;12.30;73.30;;;;;;4857067;29;20473;-78
2021/10/06 06:15:24;;;;;;;2.17;0.90;;;12.30;73.20;;;;;;4856833;29;20120;-77
2021/10/06 06:17:50;;;;;;;5.18;1.70;;;12.30;73.20;;;;;;4851992;29;20243;-78
2021/10/06 06:20:23;;;;;;;3.53;1.20;;;12.30;73.30;;;;;;4837853;29;20967;-82
2021/10/06 06:22:50;;;;;;;6.85;2.25;;;12.30;73.30;;;;;;4837429;29;20324;-78
2021/10/06 06:25:17;;;;;;;2.70;1.33;;;12.30;73.20;;;;;;4843236;29;20086;-80
2021/10/06 06:27:42;;;;;;;4.20;0.98;;;12.30;73.30;;;;;;4852438;29;20120;-77
2021/10/06 06:30:09;;;;;;;4.57;1.60;;;12.20;73.10;;;;;;4848171;29;20121;-80
2021/10/06 06:32:35;;;;;;;3.95;1.33;;;12.20;73.30;;;;;;4838679;29;20062;-77
2021/10/06 06:35:02;;;;;;;4.22;1.50;;;12.20;73.70;;;;;;4847154;29;20086;-77
2021/10/06 06:37:28;;;;;;;7.28;1.60;;;12.30;74.10;;;;;;4853605;29;20040;-77
2021/10/06 06:39:54;;;;;;;2.85;1.95;;;12.30;74.20;;;;;;4855311;29;20049;-77
2021/10/06 06:42:20;;;;;;;5.63;1.48;;;12.30;74.30;;;;;;4855556;29;20038;-76
2021/10/06 06:44:46;;;;;;;2.35;1.10;;;12.30;74.30;;;;;;4855970;29;20113;-76
2021/10/06 06:47:12;;;;;;;3.13;1.13;;;12.30;74.30;;;;;;4854535;29;20072;-76
2021/10/06 06:49:38;;;;;;;2.75;1.30;;;12.30;74.30;;;;;;4866707;29;20592;-80
2021/10/06 06:52:04;;;;;;;4.93;1.77;;;12.30;74.30;;;;;;4839125;29;20407;-81
2021/10/06 06:54:30;;;;;;;4.72;1.10;;;12.30;74.20;;;;;;4856393;29;20029;-86
2021/10/06 06:56:56;;;;;;;2.03;0.93;;;12.30;74.30;;;;;;4855896;29;20038;-78
2021/10/06 06:59:22;;;;;;;3.47;1.40;;;12.40;74.40;;;;;;4856265;29;20561;-81
2021/10/06 07:01:48;;;;;;;2.28;1.00;;;12.30;74.20;;;;;;4856487;29;20029;-81
2021/10/06 07:04:15;;;;;;;2.97;0.95;;;12.40;74.30;;;;;;4855334;29;20093;-75
2021/10/06 07:06:41;;;;;;;6.35;1.60;;;12.40;74.30;;;;;;4855839;29;20120;-78
2021/10/06 07:09:07;;;;;;;3.63;1.38;;;12.40;74.20;;;;;;4844807;29;20105;-76
2021/10/06 07:11:34;;;;;;;3.67;1.10;;;12.40;74.20;;;;;;4838804;29;20030;-76
2021/10/06 07:14:00;;;;;;;3.40;1.10;;;12.40;74.20;;;;;;4838353;29;20538;-84
2021/10/06 07:16:26;;;;;;;1.80;0.95;;;12.40;74.10;;;;;;4842968;29;20038;-80
2021/10/06 07:18:52;;;;;;;4.07;1.23;;;12.40;74.10;;;;;;4845580;29;20090;-83
2021/10/06 07:21:19;;;;;;;2.47;0.88;;;12.50;74.20;;;;;;4838322;29;20082;-77
2021/10/06 07:23:45;;;;;;;2.00;0.80;;;12.50;74.20;;;;;;4837380;29;20148;-77
2021/10/06 07:26:12;;;;;;;6.07;1.15;;;12.60;74.30;;;;;;4822000;29;20102;-85
2021/10/06 07:28:38;;;;;;;2.78;1.00;;;12.60;74.20;;;;;;4836912;29;20111;-88
2021/10/06 07:31:05;;;;;;;2.08;1.00;;;12.60;74.10;;;;;;4836554;29;20443;-83
2021/10/06 07:33:30;;;;;;;3.58;1.25;;;12.70;74.20;;;;;;4838028;29;20536;-79
2021/10/06 07:35:56;;;;;;;3.55;1.20;;;12.80;74.20;;;;;;4839846;29;20038;-88
2021/10/06 07:38:22;;;;;;;1.48;1.02;;;12.80;74.10;;;;;;4838540;29;20084;-83
2021/10/06 07:40:48;;;;;;;5.15;1.10;;;12.90;74.20;;;;;;4835482;29;20539;-77
2021/10/06 07:43:14;;;;;;;2.65;0.95;;;12.90;74.10;;;;;;4846124;29;20045;-84
2021/10/06 07:45:44;;;;;;;3.50;0.80;;;13.00;74.20;;;;;;4856398;29;20037;-79
2021/10/06 07:48:10;;;;;;;2.55;0.88;;;13.10;74.20;;;;;;4847997;29;20057;-85
2021/10/06 07:50:36;;;;;;;1.40;0.88;;;13.20;74.30;;;;;;4837999;29;20409;-84
2021/10/06 07:53:02;;;;;;;2.33;0.70;;;13.20;74.10;;;;;;4838505;29;20094;-78
2021/10/06 07:55:28;;;;;;;1.20;0.73;;;13.30;74.10;;;;;;4836341;29;20041;-78
2021/10/06 07:57:56;;;;;;;0.35;0.35;;;13.30;73.90;;;;;;4837019;29;20037;-78
2021/10/06 08:00:23;;;;;;;2.70;1.00;;;13.40;74.00;;;;;;4838959;29;20039;-84
2021/10/06 08:02:49;;;;;;;3.03;0.80;;;13.40;73.80;;;;;;4838070;29;20121;-89
2021/10/06 08:05:15;;;;;;;2.97;0.70;;;13.50;73.90;;;;;;4841085;29;20080;-84
2021/10/06 08:07:41;;;;;;;1.80;0.70;;;13.50;73.80;;;;;;4835665;29;20038;-91
2021/10/06 08:10:07;;;;;;;2.50;1.10;;;13.50;73.70;;;;;;4838649;29;20998;-85
2021/10/06 08:12:34;;;;;;;3.45;0.80;;;13.50;73.60;;;;;;4841536;29;20093;-79
2021/10/06 08:15:00;;;;;;;1.67;0.68;;;13.50;73.50;;;;;;4856037;29;20037;-89
2021/10/06 08:17:26;;;;;;;1.73;0.63;;;13.50;73.40;;;;;;4855569;29;20037;-88
2021/10/06 08:19:52;;;;;;;3.85;1.27;;;13.50;73.30;;;;;;4856494;29;20052;-83
2021/10/06 08:22:19;;;;;;;4.28;0.90;;;13.50;73.20;;;;;;4850045;29;20041;-85
2021/10/06 08:24:45;;;;;;;2.42;0.88;;;13.50;73.20;;;;;;4855846;29;20037;-87
2021/10/06 08:27:13;;;;;;;2.15;0.98;;;13.50;73.20;;;;;;4855334;29;20041;-86
2021/10/06 08:29:40;;;;;;;2.53;0.98;;;13.50;73.10;;;;;;4869574;29;20492;-85
2021/10/06 08:32:06;;;;;;;2.47;0.68;;;13.50;73.10;;;;;;4854811;29;20033;-83
2021/10/06 08:34:32;;;;;;;2.30;0.40;;;13.50;73.00;;;;;;4855276;29;20116;-85
2021/10/06 08:36:58;;;;;;;2.33;0.70;;;13.50;73.00;;;;;;4855561;29;20431;-87
2021/10/06 08:39:25;;;;;;;1.00;0.80;;;13.60;73.10;;;;;;4855353;29;20077;-84
2021/10/06 08:41:51;;;;;;;0.88;0.60;;;13.50;72.90;;;;;;4854062;29;20397;-78
2021/10/06 08:44:21;;;;;;;1.25;0.68;;;13.60;73.00;;;;;;4838542;29;20442;-85
2021/10/06 08:46:47;;;;;;;2.78;1.20;;;13.50;72.80;;;;;;4844177;29;20050;-86
2021/10/06 08:49:13;;;;;;;2.83;0.80;;;13.60;72.90;;;;;;4842561;29;20041;-82
2021/10/06 08:51:39;;;;;;;0.50;0.50;;;13.60;72.90;;;;;;4836409;29;20554;-86
2021/10/06 08:54:06;;;;;;;2.17;0.68;;;13.60;72.80;;;;;;4836254;29;20393;-84
2021/10/06 08:56:32;;;;;;;2.17;0.50;;;13.60;72.80;;;;;;4837232;29;20038;-83
2021/10/06 08:58:58;;;;;;;1.70;0.60;;;13.60;72.70;;;;;;4836063;29;20065;-80
2021/10/06 09:01:26;;;;;;;2.78;0.75;;;13.60;73.20;;;;;;4837263;29;20619;-78
2021/10/06 09:04:01;;;;;;;1.60;0.77;;;13.60;72.60;;;;;;4837212;29;20041;-79
2021/10/06 09:06:42;;;;;;;3.25;0.65;;;13.70;72.70;;;;;;4838380;29;20037;-85
2021/10/06 09:09:20;;;;;;;2.38;0.57;;;13.70;72.60;;;;;;4851387;29;20117;-82
2021/10/06 09:11:49;;;;;;;2.47;0.68;;;13.70;72.60;;;;;;4855377;29;20113;-88
2021/10/06 09:14:15;;;;;;;2.83;0.90;;;13.70;72.50;;;;;;4854825;29;20037;-81
2021/10/06 09:16:42;;;;;;;0.60;0.40;;;13.80;72.60;;;;;;4853586;29;20030;-78
2021/10/06 09:19:09;;;;;;;1.70;0.80;;;13.80;72.60;;;;;;4839198;29;20527;-77
2021/10/06 09:21:56;;;;;;;3.53;0.85;;;13.80;72.50;;;;;;4834494;29;20040;-78
2021/10/06 09:24:23;;;;;;;1.02;0.50;;;13.90;72.60;;;;;;4853470;29;20162;-78
2021/10/06 09:27:09;;;;;;;1.10;0.80;;;13.90;72.50;;;;;;4853565;29;20112;-78
2021/10/06 09:29:49;;;;;;;2.75;0.50;;;13.90;72.40;;;;;;4853929;29;20053;-81
2021/10/06 09:32:29;;;;;;;4.63;0.88;;;14.00;72.50;;;;;;4852847;29;20029;-78
2021/10/06 09:35:10;;;;;;;1.50;0.60;;;14.00;72.40;;;;;;4838775;29;20089;-77
2021/10/06 09:37:39;;;;;;;2.80;0.75;;;14.10;72.50;;;;;;4852648;29;20826;-77
2021/10/06 09:40:08;;;;;;;1.67;0.80;;;14.10;72.40;;;;;;4834128;29;20046;-77
2021/10/06 09:42:42;;;;;;;1.25;0.70;;;14.20;72.50;;;;;;4834488;29;20034;-78
2021/10/06 09:45:08;;;;;;;2.40;0.70;;;14.20;72.20;;;;;;4834233;29;20034;-77
2021/10/06 09:47:35;;;;;;;2.22;0.40;;;14.20;72.10;;;;;;4846573;29;20064;-78
2021/10/06 09:50:02;;;;;;;2.22;0.47;;;14.30;72.20;;;;;;4835779;29;20030;-78
2021/10/06 09:52:32;;;;;;;1.60;0.95;;;14.40;72.20;;;;;;4835415;29;20038;-77
2021/10/06 09:55:04;;;;;;;2.65;0.50;;;14.40;72.10;;;;;;4835063;29;20045;-79
2021/10/06 09:57:34;;;;;;;1.70;0.80;;;14.40;71.90;;;;;;4833593;29;20082;-78
2021/10/06 10:00:06;;;;;;;1.20;0.57;;;14.50;72.00;;;;;;4835907;29;20301;-77
2021/10/06 10:02:39;;;;;;;0.93;0.40;;;14.60;71.90;;;;;;4834846;29;20038;-80
2021/10/06 10:05:06;;;;;;;0.98;0.47;;;14.60;71.80;;;;;;4834335;29;20102;-78
2021/10/06 10:07:33;;;;;;;1.20;0.50;;;14.70;71.90;;;;;;4835080;29;20088;-77
2021/10/06 10:10:01;;;;;;;1.58;0.50;;;14.70;71.70;;;;;;4838870;29;20042;-78
2021/10/06 10:12:28;;;;;;;1.25;0.50;;;14.80;71.70;;;;;;4836624;29;20481;-78
2021/10/06 10:14:56;;;;;;;0.93;0.40;;;14.90;71.70;;;;;;4841278;29;20360;-82
2021/10/06 10:17:22;;;;;;;3.60;0.82;;;15.00;71.70;;;;;;4850235;29;20065;-81
2021/10/06 10:19:54;;;;;;;2.50;0.40;;;15.10;71.70;;;;;;4837412;29;20045;-78
2021/10/06 10:22:21;;;;;;;1.48;0.50;;;15.10;71.50;;;;;;4838684;29;20037;-77
2021/10/06 10:24:50;;;;;;;1.52;0.40;;;15.20;71.60;;;;;;4839591;29;20387;-79
2021/10/06 10:27:19;;;;;;;1.23;0.50;;;15.30;71.60;;;;;;4840098;29;20030;-77
2021/10/06 10:30:04;;;;;;;2.00;0.60;;;15.30;71.40;;;;;;4838915;29;20038;-84
2021/10/06 10:32:44;;;;;;;0.60;0.30;;;15.40;71.40;;;;;;4867260;29;20033;-77
2021/10/06 10:35:17;;;;;;;2.33;0.65;;;15.40;71.20;;;;;;4855588;29;20037;-77
2021/10/06 10:37:50;;;;;;;1.92;0.47;;;15.40;71.10;;;;;;4854111;29;20041;-78
2021/10/06 10:40:32;;;;;;;1.52;0.50;;;15.50;71.20;;;;;;4837358;29;20113;-78
2021/10/06 10:43:10;;;;;;;2.55;0.73;;;15.50;71.10;;;;;;4840868;29;20069;-84
2021/10/06 10:45:44;;;;;;;1.95;0.95;;;15.60;71.20;;;;;;4837074;29;20079;-82
2021/10/06 10:48:24;;;;;;;2.40;0.80;;;15.60;71.50;;;;;;4849421;29;20050;-77
2021/10/06 10:50:50;;;;;;;0.60;0.57;;;15.70;71.90;;;;;;4836627;29;20050;-77
2021/10/06 10:53:42;;;;;;;1.65;0.57;;;15.80;72.00;;;;;;4837296;29;20574;-78
2021/10/06 10:56:10;;;;;;;4.22;1.23;;;15.90;72.00;;;;;;4832823;29;20045;-77
2021/10/06 10:58:43;;;;;;;2.53;0.93;;;16.10;72.20;;;;;;4837199;29;20554;-79
2021/10/06 11:01:15;;;;;;;2.22;0.60;;;16.10;72.00;;;;;;4837927;29;20399;-78
2021/10/06 11:04:10;;;;;;;5.57;1.65;;;16.20;71.90;;;;;;4837238;29;20121;-78
2021/10/06 11:06:37;;;;;;;4.25;1.25;;;16.40;72.00;;;;;;4833667;29;20026;-76
2021/10/06 11:09:31;;;;;;;2.92;0.93;;;16.60;72.10;;;;;;4852323;29;20178;-77
2021/10/06 11:12:06;;;;;;;2.33;0.68;;;16.70;71.90;;;;;;4855562;29;20205;-78
2021/10/06 11:14:34;;;;;;;1.88;0.70;;;16.80;71.70;;;;;;4837664;29;20038;-78
2021/10/06 11:17:16;;;;;;;1.45;0.95;;;16.90;71.70;;;;;;4846746;29;20033;-79
2021/10/06 11:19:48;;;;;;;6.25;2.83;;;17.00;71.50;;;;;;4838134;29;20046;-80
2021/10/06 11:22:40;;;;;;;8.25;2.33;;;17.10;72.30;;;;;;4835767;29;20086;-81
2021/10/06 11:25:09;;;;;;;4.10;1.70;;;17.30;73.20;;;;;;4847115;29;20038;-81
2021/10/06 11:27:46;;;;;;;4.10;1.63;;;17.40;73.30;;;;;;4851012;29;20537;-81
2021/10/06 11:30:14;;;;;;;5.18;1.60;;;17.50;73.50;;;;;;4838124;29;20446;-79
2021/10/06 11:32:53;;;;;;;3.80;1.40;;;17.70;73.70;;;;;;4837145;29;20034;-80
2021/10/06 11:35:19;;;;;;;3.70;1.30;;;17.80;73.70;;;;;;4837021;29;20042;-78
2021/10/06 11:37:46;;;;;;;4.55;1.25;;;18.00;73.90;;;;;;4837261;29;20505;-79
2021/10/06 11:40:14;;;;;;;2.53;1.25;;;18.00;73.60;;;;;;4837004;29;20611;-82
2021/10/06 11:42:40;;;;;;;4.28;1.48;;;18.20;73.60;;;;;;4846229;29;20034;-79
2021/10/06 11:45:15;;;;;;;2.85;0.95;;;18.30;73.40;;;;;;4837333;29;20410;-77
2021/10/06 11:47:41;;;;;;;5.72;1.10;;;18.40;73.00;;;;;;4849470;29;20115;-76
2021/10/06 11:50:08;;;;;;;2.92;0.90;;;18.50;72.70;;;;;;4836186;29;20079;-78
2021/10/06 11:52:34;;;;;;;1.92;0.98;;;18.60;72.40;;;;;;4835824;29;20065;-79
2021/10/06 11:55:00;;;;;;;4.15;1.05;;;18.60;72.30;;;;;;4834836;29;20109;-81
2021/10/06 11:57:26;;;;;;;3.10;1.08;;;18.70;72.20;;;;;;4835045;29;20552;-87
2021/10/06 11:59:55;;;;;;;2.33;1.10;;;18.70;71.90;;;;;;4854303;29;20041;-80
2021/10/06 12:02:21;;;;;;;3.47;1.00;;;18.80;71.80;;;;;;4854293;29;20037;-83
2021/10/06 12:04:50;;;;;;;3.40;1.13;;;18.80;71.50;;;;;;4849943;29;20129;-82
2021/10/06 12:07:24;;;;;;;4.35;0.90;;;18.90;71.50;;;;;;4855328;29;20037;-85
2021/10/06 12:09:57;;;;;;;1.80;0.80;;;18.80;71.20;;;;;;4853992;29;20252;-81
2021/10/06 12:12:28;;;;;;;4.40;1.00;;;18.90;71.20;;;;;;4853991;29;20466;-82
2021/10/06 12:15:06;;;;;;;4.40;1.48;;;18.90;71.20;;;;;;4855861;29;20251;-80
2021/10/06 12:17:37;;;;;;;4.28;1.02;;;19.00;71.20;;;;;;4850810;29;20038;-81
2021/10/06 12:20:05;;;;;;;2.38;0.85;;;19.00;71.00;;;;;;4835917;29;20041;-81
2021/10/06 12:22:37;;;;;;;3.25;1.13;;;19.10;71.00;;;;;;4836299;29;20030;-79
2021/10/06 12:25:09;;;;;;;1.80;0.88;;;19.10;70.80;;;;;;4836849;29;20626;-86
2021/10/06 12:27:39;;;;;;;2.97;1.15;;;19.20;70.80;;;;;;4835076;29;20439;-81
2021/10/06 12:30:16;;;;;;;2.17;1.13;;;19.30;70.80;;;;;;4835277;29;20221;-81
2021/10/06 12:32:45;;;;;;;2.80;0.93;;;19.30;70.50;;;;;;4834744;29;20521;-80
2021/10/06 12:35:14;;;;;;;2.00;0.88;;;19.40;70.60;;;;;;4836092;29;20102;-80
2021/10/06 12:38:03;;;;;;;5.20;1.20;;;19.40;70.40;;;;;;4835303;29;20038;-80
2021/10/06 12:40:34;;;;;;;2.85;1.13;;;19.50;70.30;;;;;;4836133;29;20132;-80
2021/10/06 12:43:28;;;;;;;4.65;1.08;;;19.50;70.10;;;;;;4840472;29;20044;-79
2021/10/06 12:46:07;;;;;;;2.72;0.85;;;19.60;70.10;;;;;;4852855;29;20486;-80
2021/10/06 12:48:35;;;;;;;3.17;0.90;;;19.70;70.00;;;;;;4845402;29;20152;-80
2021/10/06 12:51:01;;;;;;;2.95;0.90;;;19.80;70.00;;;;;;4835027;29;20073;-80
2021/10/06 12:53:27;;;;;;;3.50;1.75;;;19.80;69.80;;;;;;4833406;29;20181;-84